createdAt,value
2022-12-09T00:02:00.912Z,100016.53
2022-12-09T00:04:45.127Z,100064.03
2022-12-09T00:07:29.176Z,100057.19
2022-12-09T00:10:13.433Z,100072.19
2022-12-09T00:12:58.974Z,100033.84
2022-12-09T00:15:43.906Z,100063.50
2022-12-09T00:18:27.914Z,100026.84
2022-12-09T00:21:19.859Z,100056.38
2022-12-09T00:24:06.369Z,100025.56
2022-12-09T00:26:50.484Z,100067.72
2022-12-09T00:29:36.056Z,100074.47
2022-12-09T00:32:20.301Z,100031.16
2022-12-09T00:35:05.006Z,100024.16
2022-12-09T00:37:50.457Z,100066.44
2022-12-09T00:40:34.673Z,100068.97
2022-12-09T00:43:18.592Z,100036.44
2022-12-09T00:46:04.759Z,100072.06
2022-12-09T00:48:48.889Z,100070.25
2022-12-09T00:51:33.013Z,100031.47
2022-12-09T00:54:18.255Z,100064.31
2022-12-09T00:57:02.878Z,100036.25
2022-12-09T00:59:46.834Z,100079.22
2022-12-09T01:02:32.330Z,100066.94
2022-12-09T01:05:16.870Z,100026.38
2022-12-09T01:08:00.760Z,100036.75
2022-12-09T01:10:45.984Z,100070.38
2022-12-09T01:13:29.714Z,100056.88
2022-12-09T01:16:18.038Z,100039.31
2022-12-09T01:19:06.369Z,100073.44
2022-12-09T01:21:50.370Z,100066.75
2022-12-09T01:24:34.247Z,100048.53
2022-12-09T01:27:17.908Z,100067.47
2022-12-09T01:30:01.654Z,100044.09
2022-12-09T01:32:47.097Z,100031.16
2022-12-09T01:35:32.495Z,100068.81
2022-12-09T01:38:16.507Z,100037.28
2022-12-09T01:41:00.527Z,100043.84
2022-12-09T01:43:44.846Z,100061.06
2022-12-09T01:46:28.899Z,100063.88
2022-12-09T01:49:18.271Z,100062.75
2022-12-09T01:52:10.370Z,100059.09
2022-12-09T01:54:55.720Z,100062.19
2022-12-09T01:57:40.647Z,100065.75
2022-12-09T02:00:24.759Z,100063.69
2022-12-09T02:03:08.934Z,100061.84
2022-12-09T02:05:53.404Z,100064.56
2022-12-09T02:08:38.949Z,100070.50
2022-12-09T02:11:31.962Z,100064.56
2022-12-09T02:14:20.576Z,100043.94
2022-12-09T02:17:25.214Z,100084.00
2022-12-09T02:20:19.913Z,100066.09
2022-12-09T02:23:12.817Z,100047.34
2022-12-09T02:26:09.552Z,100075.16
2022-12-09T02:29:23.001Z,100067.38
2022-12-09T02:32:24.139Z,100052.28
2022-12-09T02:35:13.063Z,100048.19
2022-12-09T02:38:02.258Z,100051.09
2022-12-09T02:40:51.703Z,100048.34
2022-12-09T02:43:41.145Z,100011.88
2022-12-09T02:46:30.861Z,100039.06
2022-12-09T02:49:17.562Z,100036.75
2022-12-09T02:52:04.376Z,100055.34
2022-12-09T02:54:48.802Z,100054.34
2022-12-09T02:57:36.056Z,100035.91
2022-12-09T03:00:20.456Z,100041.59
2022-12-09T03:03:06.588Z,100050.25
2022-12-09T03:05:57.703Z,100045.81
2022-12-09T03:08:49.109Z,100059.09
2022-12-09T03:11:34.354Z,100054.66
2022-12-09T03:14:22.618Z,100050.41
2022-12-09T03:17:13.999Z,100055.53
2022-12-09T03:20:02.117Z,100054.06
2022-12-09T03:22:49.208Z,100039.50
2022-12-09T03:25:39.742Z,100057.16
2022-12-09T03:28:29.154Z,100066.25
2022-12-09T03:31:19.125Z,100069.63
2022-12-09T03:34:05.680Z,100044.00
2022-12-09T03:36:53.225Z,100085.75
2022-12-09T03:39:40.061Z,100082.75
2022-12-09T03:42:32.482Z,100087.31
2022-12-09T03:45:19.142Z,100085.75
2022-12-09T03:48:03.649Z,100086.31
2022-12-09T03:50:53.578Z,100076.94
2022-12-09T03:53:44.468Z,100067.91
2022-12-09T03:56:30.135Z,100085.34
2022-12-09T03:59:17.364Z,100093.25
2022-12-09T04:02:01.680Z,100086.06
2022-12-09T04:04:46.137Z,100086.06
2022-12-09T04:07:30.251Z,100075.66
2022-12-09T04:10:14.362Z,100085.00
2022-12-09T04:12:58.393Z,100072.53
2022-12-09T04:15:43.706Z,100084.19
2022-12-09T04:18:27.631Z,100087.47
2022-12-09T04:21:14.584Z,100074.91
2022-12-09T04:23:58.406Z,100081.81
2022-12-09T04:26:43.306Z,100084.88
2022-12-09T04:29:27.499Z,100053.84
2022-12-09T04:32:12.860Z,100081.63
2022-12-09T04:34:57.325Z,100081.34
2022-12-09T04:37:41.383Z,100100.28
2022-12-09T04:40:25.401Z,100102.69
2022-12-09T04:43:09.749Z,100096.03
2022-12-09T04:45:54.288Z,100093.38
2022-12-09T04:48:39.851Z,100097.94
2022-12-09T04:51:24.102Z,100097.19
2022-12-09T04:54:08.960Z,100091.03
2022-12-09T04:56:53.385Z,100099.41
2022-12-09T04:59:37.436Z,100055.06
2022-12-09T05:02:21.894Z,100048.75
2022-12-09T05:05:08.737Z,100089.47
2022-12-09T05:07:53.363Z,100052.66
2022-12-09T05:10:37.753Z,100081.91
2022-12-09T05:13:22.027Z,100104.41
2022-12-09T05:16:13.901Z,100099.56
2022-12-09T05:19:01.660Z,100098.81
2022-12-09T05:21:47.577Z,100064.19
2022-12-09T05:24:33.396Z,100075.47
2022-12-09T05:27:17.491Z,100099.03
2022-12-09T05:30:01.851Z,100076.16
2022-12-09T05:32:46.793Z,100077.09
2022-12-09T05:35:31.065Z,100117.91
2022-12-09T05:38:16.803Z,100083.75
2022-12-09T05:41:01.473Z,100119.00
2022-12-09T05:43:46.510Z,100122.69
2022-12-09T05:46:31.339Z,100083.66
2022-12-09T05:49:15.570Z,100128.16
2022-12-09T05:52:00.323Z,100124.88
2022-12-09T05:54:46.012Z,100128.31
2022-12-09T05:57:30.045Z,100095.81
2022-12-09T06:00:15.794Z,100092.56
2022-12-09T06:03:00.224Z,100131.22
2022-12-09T06:05:45.145Z,100137.34
2022-12-09T06:08:29.774Z,100103.69
2022-12-09T06:11:17.475Z,100132.31
2022-12-09T06:14:02.209Z,100100.69
2022-12-09T06:16:46.718Z,100112.50
2022-12-09T06:19:31.090Z,100153.16
2022-12-09T06:22:15.675Z,100153.06
2022-12-09T06:24:59.657Z,100117.75
2022-12-09T06:27:45.119Z,100169.97
2022-12-09T06:30:29.147Z,100133.47
2022-12-09T06:33:37.311Z,100127.66
2022-12-09T06:36:17.423Z,100112.56
2022-12-09T06:39:09.964Z,100109.56
2022-12-09T06:41:55.470Z,100128.97
2022-12-09T06:44:41.533Z,100110.41
2022-12-09T06:47:25.691Z,100159.34
2022-12-09T06:50:10.957Z,100165.97
2022-12-09T06:52:55.665Z,100171.66
2022-12-09T06:55:39.867Z,100175.09
2022-12-09T06:58:23.929Z,100172.84
2022-12-09T07:01:13.938Z,100179.66
2022-12-09T07:03:58.848Z,100176.41
2022-12-09T07:06:45.439Z,100148.00
2022-12-09T07:09:29.632Z,100167.59
2022-12-09T07:12:13.827Z,100144.97
2022-12-09T07:14:58.240Z,100170.59
2022-12-09T07:17:43.973Z,100140.06
2022-12-09T07:20:28.481Z,100138.53
2022-12-09T07:23:13.733Z,100193.47
2022-12-09T07:25:58.539Z,100187.72
2022-12-09T07:28:44.214Z,100197.72
2022-12-09T07:31:29.605Z,100194.53
2022-12-09T07:34:15.174Z,100202.31
2022-12-09T07:36:59.219Z,100198.81
2022-12-09T07:39:43.085Z,100182.41
2022-12-09T07:42:26.952Z,100198.59
2022-12-09T07:45:13.277Z,100207.28
2022-12-09T07:47:57.756Z,100192.69
2022-12-09T07:50:43.452Z,100190.25
2022-12-09T07:53:27.724Z,100199.41
2022-12-09T07:56:13.404Z,100194.97
2022-12-09T07:58:58.186Z,100185.28
2022-12-09T08:01:42.843Z,100194.97
2022-12-09T08:04:27.216Z,100196.13
2022-12-09T08:07:13.699Z,100172.84
2022-12-09T08:09:58.000Z,100200.28
2022-12-09T08:12:41.889Z,100191.81
2022-12-09T08:15:26.178Z,100190.38
2022-12-09T08:18:10.380Z,100196.84
2022-12-09T08:20:54.694Z,100200.00
2022-12-09T08:23:42.039Z,100195.78
2022-12-09T08:26:29.410Z,100197.88
2022-12-09T08:29:15.303Z,100171.78
2022-12-09T08:31:59.932Z,100193.91
2022-12-09T08:34:44.285Z,100169.47
2022-12-09T08:37:28.587Z,100163.25
2022-12-09T08:40:15.464Z,100156.47
2022-12-09T08:42:59.943Z,100180.94
2022-12-09T08:45:44.307Z,100164.38
2022-12-09T08:48:28.821Z,100164.03
2022-12-09T08:51:13.489Z,100191.38
2022-12-09T08:53:58.738Z,100190.31
2022-12-09T08:56:47.861Z,100175.00
2022-12-09T08:59:32.296Z,100155.75
2022-12-09T09:02:16.430Z,100144.91
2022-12-09T09:05:00.797Z,100179.94
2022-12-09T09:07:47.007Z,100170.78
2022-12-09T09:10:31.287Z,100145.69
2022-12-09T09:13:17.004Z,100166.72
2022-12-09T09:16:01.302Z,100133.25
2022-12-09T09:18:45.978Z,100131.25
2022-12-09T09:21:30.548Z,100156.69
2022-12-09T09:24:18.232Z,100135.41
2022-12-09T09:27:02.771Z,100090.44
2022-12-09T09:29:48.383Z,100135.78
2022-12-09T09:32:32.984Z,100153.56
2022-12-09T09:35:17.228Z,100142.06
2022-12-09T09:38:01.419Z,100119.84
2022-12-09T09:40:45.811Z,100150.16
2022-12-09T09:43:35.577Z,100113.88
2022-12-09T09:46:35.021Z,100113.09
2022-12-09T09:49:26.263Z,100141.22
2022-12-09T09:52:17.080Z,100152.31
2022-12-09T09:55:01.425Z,100152.06
2022-12-09T09:57:50.507Z,100153.00
2022-12-09T10:00:40.534Z,100116.34
2022-12-09T10:03:37.418Z,100160.31
2022-12-09T10:06:33.544Z,100086.88
2022-12-09T10:09:28.372Z,100160.06
2022-12-09T10:12:21.304Z,100121.03
2022-12-09T10:15:11.519Z,100134.53
2022-12-09T10:18:06.471Z,100111.97
2022-12-09T10:20:52.136Z,100141.06
2022-12-09T10:23:36.147Z,100095.72
2022-12-09T10:26:24.657Z,100124.00
2022-12-09T10:29:18.752Z,100106.38
2022-12-09T10:32:02.912Z,100118.06
2022-12-09T10:34:47.707Z,100074.53
2022-12-09T10:37:36.200Z,100067.13
2022-12-09T10:40:27.661Z,100068.81
2022-12-09T10:43:42.521Z,100100.84
2022-12-09T10:46:27.570Z,100100.31
2022-12-09T10:49:20.904Z,100055.63
2022-12-09T10:52:05.797Z,100068.59
2022-12-09T10:54:52.328Z,100064.56
2022-12-09T10:57:36.274Z,100073.66
2022-12-09T11:00:31.033Z,100072.16
2022-12-09T11:03:27.875Z,100043.22
2022-12-09T11:06:25.207Z,100060.81
2022-12-09T11:09:23.253Z,100072.38
2022-12-09T11:12:18.416Z,100028.78
2022-12-09T11:15:04.577Z,100026.66
2022-12-09T11:17:58.599Z,100059.38
2022-12-09T11:20:42.972Z,100068.38
2022-12-09T11:23:28.000Z,100029.78
2022-12-09T11:26:24.679Z,100023.09
2022-12-09T11:29:17.804Z,100027.66
2022-12-09T11:32:03.988Z,100048.47
2022-12-09T11:34:48.533Z,100049.31
2022-12-09T11:37:33.577Z,100040.13
2022-12-09T11:40:18.291Z,100036.31
2022-12-09T11:43:02.156Z,100019.97
2022-12-09T11:45:47.378Z,100027.69
2022-12-09T11:48:41.727Z,99994.81
2022-12-09T11:51:30.159Z,100034.13
2022-12-09T11:54:21.570Z,100017.50
2022-12-09T11:57:07.651Z,100026.16
2022-12-09T11:59:56.492Z,100022.09
2022-12-09T12:02:45.468Z,100034.72
2022-12-09T12:05:35.227Z,100004.94
2022-12-09T12:08:26.886Z,100017.28
2022-12-09T12:11:15.593Z,100023.09
2022-12-09T12:14:04.921Z,100015.91
2022-12-09T12:16:58.503Z,100022.34
2022-12-09T12:19:52.372Z,100019.53
2022-12-09T12:23:01.574Z,100018.41
2022-12-09T12:25:54.988Z,100021.81
2022-12-09T12:29:02.545Z,100014.25
2022-12-09T12:32:16.933Z,100026.16
2022-12-09T12:35:19.941Z,99993.72
2022-12-09T12:38:19.031Z,100023.25
2022-12-09T12:41:13.137Z,100024.38
2022-12-09T12:44:26.225Z,100034.00
2022-12-09T12:47:19.423Z,100028.72
2022-12-09T12:50:31.995Z,100026.75
2022-12-09T12:53:25.761Z,100030.06
2022-12-09T12:56:14.733Z,100023.72
2022-12-09T12:59:07.727Z,100008.84
2022-12-09T13:01:54.656Z,100011.41
2022-12-09T13:04:45.156Z,100036.69
2022-12-09T13:07:37.841Z,99996.34
2022-12-09T13:10:28.626Z,100022.38
2022-12-09T13:13:20.687Z,99990.25
2022-12-09T13:16:15.124Z,100007.75
2022-12-09T13:19:07.081Z,100008.94
2022-12-09T13:21:51.697Z,99987.41
2022-12-09T13:24:42.375Z,100001.69
2022-12-09T13:27:34.751Z,100003.75
2022-12-09T13:30:22.012Z,100004.75
2022-12-09T13:33:27.088Z,100012.25
2022-12-09T13:36:19.513Z,100015.66
2022-12-09T13:39:03.368Z,100014.63
2022-12-09T13:42:06.001Z,100016.06
2022-12-09T13:44:49.748Z,100022.97
2022-12-09T13:47:37.596Z,100004.13
2022-12-09T13:50:27.590Z,100015.50
2022-12-09T13:53:27.188Z,100006.75
2022-12-09T13:56:22.638Z,100012.91
2022-12-09T13:59:43.619Z,100041.84
2022-12-09T14:02:35.822Z,100033.59
2022-12-09T14:05:23.045Z,100035.09
2022-12-09T14:08:20.622Z,100028.06
2022-12-09T14:11:49.347Z,100018.81
2022-12-09T14:14:55.954Z,100018.72
2022-12-09T14:18:02.171Z,100015.31
2022-12-09T14:21:24.463Z,100006.22
2022-12-09T14:24:33.828Z,100011.72
2022-12-09T14:27:19.721Z,99970.53
2022-12-09T14:30:26.472Z,100014.50
2022-12-09T14:33:23.160Z,100001.47
2022-12-09T14:36:21.378Z,100011.53
2022-12-09T14:39:25.457Z,99997.72
2022-12-09T14:42:14.301Z,100001.75
2022-12-09T14:45:05.062Z,99988.06
2022-12-09T14:47:50.320Z,99987.06
2022-12-09T14:50:38.409Z,99997.16
2022-12-09T14:53:24.638Z,99997.59
2022-12-09T14:56:09.034Z,99994.50
2022-12-09T14:58:57.032Z,100000.97
2022-12-09T15:01:52.183Z,99989.53
2022-12-09T15:04:43.001Z,99995.47
2022-12-09T15:07:28.821Z,99978.03
2022-12-09T15:10:20.921Z,99983.75
2022-12-09T15:13:05.536Z,99999.31
2022-12-09T15:15:49.350Z,99981.16
2022-12-09T15:18:34.845Z,99991.00
2022-12-09T15:21:31.191Z,99984.16
2022-12-09T15:24:16.450Z,99989.69
2022-12-09T15:27:02.741Z,99983.25
2022-12-09T15:29:46.854Z,99976.09
2022-12-09T15:32:31.766Z,99985.75
2022-12-09T15:35:22.520Z,99981.59
2022-12-09T15:38:10.130Z,99944.31
2022-12-09T15:41:13.740Z,99980.44
2022-12-09T15:44:02.325Z,99984.69
2022-12-09T15:46:48.464Z,99973.41
2022-12-09T15:49:36.828Z,99944.50
2022-12-09T15:52:25.114Z,99952.06
2022-12-09T15:55:16.198Z,99976.28
2022-12-09T15:58:03.661Z,99979.38
2022-12-09T16:00:50.304Z,99974.78
2022-12-09T16:03:36.273Z,99979.06
2022-12-09T16:06:27.628Z,99959.50
2022-12-09T16:09:14.337Z,99966.47
2022-12-09T16:11:59.494Z,99966.09
2022-12-09T16:14:45.580Z,99920.91
2022-12-09T16:17:35.076Z,99918.00
2022-12-09T16:20:30.217Z,99902.19
2022-12-09T16:23:22.436Z,99943.31
2022-12-09T16:26:07.667Z,99956.16
2022-12-09T16:28:57.991Z,99949.00
2022-12-09T16:31:42.143Z,99955.91
2022-12-09T16:34:28.369Z,99954.53
2022-12-09T16:37:25.151Z,99947.59
2022-12-09T16:40:58.169Z,99954.19
2022-12-09T16:43:58.927Z,99959.03
2022-12-09T16:46:42.901Z,99949.13
2022-12-09T16:49:26.661Z,99946.19
2022-12-09T16:52:13.421Z,99949.69
2022-12-09T16:54:57.206Z,99940.78
2022-12-09T16:57:40.894Z,99942.69
2022-12-09T17:00:26.489Z,99950.50
2022-12-09T17:03:17.926Z,99940.69
2022-12-09T17:06:01.626Z,99944.38
2022-12-09T17:08:45.938Z,99953.44
2022-12-09T17:11:29.790Z,99945.88
2022-12-09T17:14:13.560Z,99948.63
2022-12-09T17:16:58.754Z,99950.50
2022-12-09T17:19:42.990Z,99939.06
2022-12-09T17:22:26.808Z,99931.00
2022-12-09T17:25:11.047Z,99930.88
2022-12-09T17:27:55.143Z,99925.31
2022-12-09T17:30:39.649Z,99918.97
2022-12-09T17:33:27.905Z,99923.13
2022-12-09T17:36:12.468Z,99917.94
2022-12-09T17:38:56.499Z,99920.56
2022-12-09T17:41:40.418Z,99866.31
2022-12-09T17:44:24.198Z,99919.88
2022-12-09T17:47:07.990Z,99921.59
2022-12-09T17:49:53.183Z,99916.84
2022-12-09T17:52:37.133Z,99883.03
2022-12-09T17:55:21.030Z,99884.88
2022-12-09T17:58:05.057Z,99920.34
2022-12-09T18:00:48.932Z,99904.19
2022-12-09T18:03:55.131Z,99905.22
2022-12-09T18:06:40.831Z,99899.28
2022-12-09T18:09:25.642Z,99883.38
2022-12-09T18:12:09.368Z,99883.97
2022-12-09T18:14:53.504Z,99889.13
2022-12-09T18:17:37.259Z,99882.78
2022-12-09T18:20:21.283Z,99872.28
2022-12-09T18:23:06.397Z,99883.47
2022-12-09T18:25:50.498Z,99877.69
2022-12-09T18:28:34.280Z,99872.50
2022-12-09T18:31:19.867Z,99858.28
2022-12-09T18:34:03.847Z,99867.69
2022-12-09T18:36:47.550Z,99874.69
2022-12-09T18:39:32.726Z,99881.28
2022-12-09T18:42:17.795Z,99835.50
2022-12-09T18:45:01.793Z,99844.00
2022-12-09T18:47:47.347Z,99891.66
2022-12-09T18:50:31.348Z,99844.78
2022-12-09T18:53:15.479Z,99873.00
2022-12-09T18:56:00.768Z,99830.78
2022-12-09T18:59:05.250Z,99840.56
2022-12-09T19:01:49.720Z,99853.19
2022-12-09T19:04:33.974Z,99848.16
2022-12-09T19:07:17.858Z,99857.91
2022-12-09T19:10:01.594Z,99853.34
2022-12-09T19:12:49.711Z,99866.66
2022-12-09T19:15:35.482Z,99711.59
2022-12-09T19:18:19.322Z,99874.38
2022-12-09T19:21:09.268Z,99849.25
2022-12-09T19:23:53.363Z,99840.50
2022-12-09T19:26:38.183Z,99865.41
2022-12-09T19:29:24.727Z,99861.25
2022-12-09T19:32:29.366Z,99850.25
2022-12-09T19:35:12.344Z,99860.38
2022-12-09T19:38:01.070Z,99853.66
2022-12-09T19:40:45.259Z,99863.16
2022-12-09T19:43:29.236Z,99853.22
2022-12-09T19:46:15.890Z,99862.66
2022-12-09T19:49:00.040Z,99856.09
2022-12-09T19:51:44.423Z,99853.88
2022-12-09T19:54:29.849Z,99795.91
2022-12-09T19:57:13.564Z,99845.72
2022-12-09T19:59:57.583Z,99853.00
2022-12-09T20:02:42.687Z,99852.72
2022-12-09T20:05:26.642Z,99847.00
2022-12-09T20:08:10.427Z,99842.75
2022-12-09T20:10:54.114Z,99834.78
2022-12-09T20:13:37.834Z,99822.06
2022-12-09T20:16:23.543Z,99844.25
2022-12-09T20:19:09.493Z,99845.09
2022-12-09T20:21:53.267Z,99837.31
2022-12-09T20:24:37.036Z,99839.69
2022-12-09T20:27:21.154Z,99723.84
2022-12-09T20:30:05.623Z,99828.25
2022-12-09T20:32:49.649Z,99828.97
2022-12-09T20:35:36.881Z,99832.91
2022-12-09T20:38:20.567Z,99828.25
2022-12-09T20:41:05.874Z,99835.03
2022-12-09T20:43:51.042Z,99825.06
2022-12-09T20:46:35.651Z,99823.16
2022-12-09T20:49:25.567Z,99819.84
2022-12-09T20:52:10.706Z,99824.19
2022-12-09T20:54:54.505Z,99798.94
2022-12-09T20:57:38.333Z,99804.91
2022-12-09T21:00:22.294Z,99808.44
2022-12-09T21:03:06.147Z,99808.97
2022-12-09T21:05:49.941Z,99810.63
2022-12-09T21:08:35.447Z,99799.16
2022-12-09T21:11:20.812Z,99804.69
2022-12-09T21:14:06.917Z,99775.09
2022-12-09T21:16:51.467Z,99804.84
2022-12-09T21:19:35.369Z,99796.31
2022-12-09T21:22:19.110Z,99806.19
2022-12-09T21:25:04.424Z,99807.59
2022-12-09T21:27:48.318Z,99780.63
2022-12-09T21:30:32.203Z,99763.56
2022-12-09T21:33:15.950Z,99782.09
2022-12-09T21:36:01.126Z,99768.19
2022-12-09T21:38:45.626Z,99733.59
2022-12-09T21:41:34.033Z,99728.41
2022-12-09T21:44:20.111Z,99767.88
2022-12-09T21:47:04.075Z,99743.25
2022-12-09T21:49:48.109Z,99727.97
2022-12-09T21:52:32.053Z,99714.69
2022-12-09T21:55:16.090Z,99719.59
2022-12-09T21:58:01.578Z,99758.81
2022-12-09T22:00:45.643Z,99710.06
2022-12-09T22:03:29.547Z,99751.66
2022-12-09T22:06:14.106Z,99719.31
2022-12-09T22:08:59.975Z,99682.31
2022-12-09T22:11:44.129Z,99688.34
2022-12-09T22:14:29.638Z,99696.94
2022-12-09T22:17:13.657Z,99732.16
2022-12-09T22:20:25.674Z,99687.28
2022-12-09T22:23:01.760Z,99647.56
2022-12-09T22:25:45.927Z,99674.28
2022-12-09T22:28:30.584Z,99673.84
2022-12-09T22:31:18.135Z,99715.94
2022-12-09T22:34:04.651Z,99701.72
2022-12-09T22:36:49.605Z,99672.56
2022-12-09T22:39:33.574Z,99707.22
2022-12-09T22:42:17.615Z,99675.84
2022-12-09T22:45:01.737Z,99674.78
2022-12-09T22:47:48.238Z,99656.25
2022-12-09T22:50:32.369Z,99647.94
2022-12-09T22:53:16.428Z,99693.00
2022-12-09T22:56:00.551Z,99680.84
2022-12-09T22:58:44.536Z,99686.13
2022-12-09T23:01:31.061Z,99632.41
2022-12-09T23:04:18.273Z,99690.34
2022-12-09T23:07:02.158Z,99660.75
2022-12-09T23:09:46.140Z,99660.31
2022-12-09T23:12:30.088Z,99690.09
2022-12-09T23:15:14.087Z,99700.03
2022-12-09T23:17:58.620Z,99685.50
2022-12-09T23:20:44.013Z,99656.44
2022-12-09T23:23:28.003Z,99650.41
2022-12-09T23:26:14.421Z,99685.19
2022-12-09T23:28:59.906Z,99685.63
2022-12-09T23:31:44.487Z,99685.53
2022-12-09T23:34:28.386Z,99685.47
2022-12-09T23:37:14.462Z,99650.41
2022-12-09T23:39:58.357Z,99650.69
2022-12-09T23:42:42.351Z,99642.34
2022-12-09T23:45:26.375Z,99651.13
2022-12-09T23:48:10.319Z,99682.84
2022-12-09T23:50:55.043Z,99651.25
2022-12-09T23:53:41.612Z,99674.41
2022-12-09T23:56:27.474Z,99671.16
2022-12-09T23:59:14.517Z,99666.53
